createdAt,value
2022-09-18T00:01:15.312Z,9.30
2022-09-18T00:03:48.991Z,8.60
2022-09-18T00:06:24.131Z,9.90
2022-09-18T00:08:59.769Z,8.50
2022-09-18T00:11:36.793Z,9.90
2022-09-18T00:14:11.964Z,9.00
2022-09-18T00:16:45.693Z,7.50
2022-09-18T00:19:19.911Z,8.90
2022-09-18T00:21:54.046Z,8.40
2022-09-18T00:24:27.270Z,8.40
2022-09-18T00:27:00.501Z,9.30
2022-09-18T00:29:34.082Z,9.60
2022-09-18T00:32:07.567Z,8.30
2022-09-18T00:34:41.921Z,7.50
2022-09-18T00:37:15.431Z,9.00
2022-09-18T00:39:48.567Z,9.10
2022-09-18T00:42:22.843Z,8.70
2022-09-18T00:44:55.953Z,10.30
2022-09-18T00:47:32.013Z,9.80
2022-09-18T00:50:11.970Z,10.10
2022-09-18T00:52:55.848Z,8.90
2022-09-18T00:55:33.681Z,7.70
2022-09-18T00:58:08.391Z,9.80
2022-09-18T01:00:41.721Z,9.20
2022-09-18T01:03:14.990Z,11.00
2022-09-18T01:06:04.876Z,9.20
2022-09-18T01:08:53.480Z,9.50
2022-09-18T01:11:38.241Z,9.30
2022-09-18T01:14:30.598Z,10.70
2022-09-18T01:17:15.831Z,9.70
2022-09-18T01:20:12.889Z,9.00
2022-09-18T01:23:01.649Z,8.90
2022-09-18T01:25:48.759Z,8.30
2022-09-18T01:28:27.842Z,11.50
2022-09-18T01:31:06.287Z,9.70
2022-09-18T01:33:45.450Z,7.60
2022-09-18T01:36:22.681Z,10.40
2022-09-18T01:39:01.240Z,12.30
2022-09-18T01:44:10.955Z,8.40
2022-09-18T01:46:46.639Z,9.60
2022-09-18T01:49:26.038Z,10.50
2022-09-18T01:52:04.633Z,8.50
2022-09-18T01:54:42.175Z,7.40
2022-09-18T01:57:23.069Z,11.70
2022-09-18T02:00:00.134Z,11.00
2022-09-18T02:02:39.716Z,9.50
2022-09-18T02:05:18.179Z,10.10
2022-09-18T02:07:58.648Z,9.60
2022-09-18T02:10:37.071Z,9.70
2022-09-18T02:13:13.730Z,11.60
2022-09-18T02:15:49.543Z,10.50
2022-09-18T02:18:32.582Z,9.90
2022-09-18T02:21:13.340Z,9.50
2022-09-18T02:23:49.149Z,7.70
2022-09-18T02:26:23.582Z,10.00
2022-09-18T02:28:58.217Z,9.60
2022-09-18T02:31:32.016Z,12.70
2022-09-18T02:34:09.212Z,11.90
2022-09-18T02:37:10.590Z,10.90
2022-09-18T02:39:56.627Z,13.50
2022-09-18T02:42:41.722Z,9.80
2022-09-18T02:45:25.323Z,13.00
2022-09-18T02:48:13.088Z,9.80
2022-09-18T02:50:59.092Z,11.20
2022-09-18T02:53:36.965Z,13.40
2022-09-18T02:56:15.952Z,12.90
2022-09-18T02:58:53.764Z,10.80
2022-09-18T03:01:29.309Z,13.50
2022-09-18T03:04:08.110Z,9.30
2022-09-18T03:06:52.797Z,12.00
2022-09-18T03:09:26.585Z,11.30
2022-09-18T03:12:00.032Z,12.40
2022-09-18T03:14:33.167Z,10.60
2022-09-18T03:17:09.166Z,12.40
2022-09-18T03:19:44.959Z,11.90
2022-09-18T03:22:19.572Z,12.00
2022-09-18T03:24:54.439Z,12.40
2022-09-18T03:27:28.032Z,11.90
2022-09-18T03:30:01.453Z,12.00
2022-09-18T03:32:38.037Z,10.00
2022-09-18T03:35:14.358Z,11.20
2022-09-18T03:37:48.103Z,11.90
2022-09-18T03:40:25.495Z,8.70
2022-09-18T03:42:59.013Z,12.00
2022-09-18T03:45:32.485Z,10.70
2022-09-18T03:48:07.528Z,10.60
2022-09-18T03:50:41.519Z,13.00
2022-09-18T03:53:14.961Z,11.90
2022-09-18T03:56:02.474Z,13.00
2022-09-18T03:58:54.873Z,10.10
2022-09-18T04:01:43.346Z,11.40
2022-09-18T04:04:35.921Z,10.20
2022-09-18T04:07:28.057Z,9.90
2022-09-18T04:10:22.976Z,10.10
2022-09-18T04:12:56.168Z,12.00
2022-09-18T04:15:32.428Z,10.70
2022-09-18T04:18:05.584Z,9.70
2022-09-18T04:20:39.100Z,10.20
2022-09-18T04:23:14.914Z,13.30
2022-09-18T04:25:48.245Z,12.40
2022-09-18T04:28:21.731Z,11.90
2022-09-18T04:30:55.031Z,9.80
2022-09-18T04:33:28.021Z,10.80
2022-09-18T04:36:01.336Z,12.20
2022-09-18T04:38:34.915Z,11.10
2022-09-18T04:41:08.924Z,10.70
2022-09-18T04:43:42.355Z,10.80
2022-09-18T04:46:16.063Z,10.70
2022-09-18T04:48:51.760Z,11.80
2022-09-18T04:51:26.758Z,11.10
2022-09-18T04:54:00.241Z,11.30
2022-09-18T04:56:33.217Z,9.50
2022-09-18T04:59:06.714Z,13.00
2022-09-18T05:01:40.319Z,14.00
2022-09-18T05:04:17.814Z,11.50
2022-09-18T05:06:58.158Z,11.00
2022-09-18T05:09:31.320Z,12.40
2022-09-18T05:12:04.961Z,10.70
2022-09-18T05:14:39.426Z,11.80
2022-09-18T05:17:14.209Z,11.50
2022-09-18T05:19:58.080Z,12.90
2022-09-18T05:22:35.925Z,12.40
2022-09-18T05:25:10.604Z,11.80
2022-09-18T05:27:43.725Z,11.10
2022-09-18T05:30:17.853Z,12.20
2022-09-18T05:33:00.225Z,8.40
2022-09-18T05:35:36.433Z,9.60
2022-09-18T05:40:49.374Z,13.30
2022-09-18T05:43:22.747Z,12.80
2022-09-18T05:45:56.731Z,10.20
2022-09-18T05:48:37.899Z,10.90
2022-09-18T05:51:11.044Z,15.80
2022-09-18T05:53:48.888Z,11.50
2022-09-18T05:56:25.681Z,10.70
2022-09-18T05:59:00.684Z,8.90
2022-09-18T06:01:36.248Z,10.50
2022-09-18T06:04:18.096Z,8.30
2022-09-18T06:07:11.980Z,10.30
2022-09-18T06:09:47.799Z,6.60
2022-09-18T06:12:21.134Z,10.40
2022-09-18T06:14:55.840Z,8.80
2022-09-18T06:17:31.449Z,7.40
2022-09-18T06:20:08.997Z,8.20
2022-09-18T06:22:42.250Z,6.20
2022-09-18T06:25:18.632Z,5.90
2022-09-18T06:27:54.943Z,5.80
2022-09-18T06:30:33.026Z,8.40
2022-09-18T06:33:07.562Z,7.40
2022-09-18T06:35:44.594Z,8.80
2022-09-18T06:38:18.727Z,7.40
2022-09-18T06:40:56.237Z,7.20
2022-09-18T06:43:45.639Z,8.30
2022-09-18T06:46:42.368Z,5.40
2022-09-18T06:49:22.639Z,6.30
2022-09-18T06:51:56.022Z,5.70
2022-09-18T06:54:29.728Z,8.30
2022-09-18T06:57:02.941Z,6.80
2022-09-18T06:59:39.052Z,8.50
2022-09-18T07:02:19.655Z,6.60
2022-09-18T07:05:03.950Z,5.10
2022-09-18T07:07:37.363Z,7.20
2022-09-18T07:10:12.864Z,6.10
2022-09-18T07:12:50.323Z,9.40
2022-09-18T07:15:24.625Z,6.60
2022-09-18T07:17:59.550Z,6.10
2022-09-18T07:20:32.996Z,7.40
2022-09-18T07:23:06.806Z,6.00
2022-09-18T07:25:47.794Z,5.80
2022-09-18T07:28:21.307Z,7.70
2022-09-18T07:31:07.861Z,5.10
2022-09-18T07:36:14.836Z,6.60
2022-09-18T07:38:55.680Z,7.50
2022-09-18T07:41:32.618Z,7.50
2022-09-18T07:44:06.959Z,6.20
2022-09-18T07:46:55.664Z,6.70
2022-09-18T07:49:29.767Z,7.40
2022-09-18T07:52:03.770Z,9.30
2022-09-18T07:54:38.408Z,8.60
2022-09-18T07:57:17.088Z,8.70
2022-09-18T08:00:15.483Z,10.50
2022-09-18T08:02:48.846Z,9.00
2022-09-18T08:05:42.544Z,9.80
2022-09-18T08:08:26.372Z,11.50
2022-09-18T08:11:36.102Z,9.10
2022-09-18T08:14:41.888Z,8.50
2022-09-18T08:17:50.596Z,10.40
2022-09-18T08:20:44.965Z,10.10
2022-09-18T08:23:41.243Z,8.40
2022-09-18T08:26:20.048Z,8.30
2022-09-18T08:28:59.028Z,7.70
2022-09-18T08:31:32.891Z,8.60
2022-09-18T08:34:27.386Z,7.80
2022-09-18T08:37:00.923Z,9.90
2022-09-18T08:39:52.922Z,9.20
2022-09-18T08:43:09.951Z,10.20
2022-09-18T08:45:59.083Z,7.90
2022-09-18T08:48:36.492Z,7.90
2022-09-18T08:51:24.768Z,11.00
2022-09-18T08:54:23.128Z,8.00
2022-09-18T08:57:25.643Z,10.00
2022-09-18T09:00:24.076Z,7.80
2022-09-18T09:03:20.123Z,8.20
2022-09-18T09:05:58.918Z,7.40
2022-09-18T09:08:59.254Z,8.40
2022-09-18T09:11:42.424Z,8.60
2022-09-18T09:14:53.193Z,7.50
2022-09-18T09:17:43.306Z,9.30
2022-09-18T09:20:25.038Z,6.70
2022-09-18T09:23:08.347Z,8.60
2022-09-18T09:26:07.936Z,8.30
2022-09-18T09:29:10.875Z,7.20
2022-09-18T09:31:52.159Z,7.90
2022-09-18T09:35:02.251Z,8.80
2022-09-18T09:37:45.797Z,6.10
2022-09-18T09:40:32.930Z,8.50
2022-09-18T09:43:18.519Z,8.80
2022-09-18T09:45:53.949Z,8.70
2022-09-18T09:48:37.577Z,6.70
2022-09-18T09:51:19.359Z,5.50
2022-09-18T09:53:56.247Z,8.80
2022-09-18T09:56:34.717Z,6.50
2022-09-18T09:59:20.004Z,7.30
2022-09-18T10:02:34.722Z,5.80
2022-09-18T10:05:28.209Z,5.10
2022-09-18T10:08:08.056Z,7.90
2022-09-18T10:13:57.208Z,7.40
2022-09-18T10:16:36.861Z,6.90
2022-09-18T10:19:20.108Z,5.90
2022-09-18T10:21:55.890Z,7.80
2022-09-18T10:27:14.208Z,4.60
2022-09-18T10:29:48.398Z,7.30
2022-09-18T10:32:41.850Z,5.30
2022-09-18T10:35:46.401Z,5.90
2022-09-18T10:38:38.069Z,7.60
2022-09-18T10:41:40.804Z,5.10
2022-09-18T10:44:32.053Z,8.00
2022-09-18T10:47:13.489Z,7.60
2022-09-18T10:49:55.335Z,6.00
2022-09-18T10:52:36.268Z,6.80
2022-09-18T10:55:26.572Z,5.80
2022-09-18T10:58:17.154Z,6.40
2022-09-18T11:01:01.703Z,5.80
2022-09-18T11:03:42.313Z,4.60
2022-09-18T11:06:24.220Z,5.40
2022-09-18T11:09:01.164Z,8.70
2022-09-18T11:11:36.385Z,5.60
2022-09-18T11:14:26.460Z,6.20
2022-09-18T11:17:06.344Z,5.50
2022-09-18T11:19:43.678Z,4.70
2022-09-18T11:22:42.019Z,6.90
2022-09-18T11:25:24.831Z,4.50
2022-09-18T11:28:02.297Z,6.10
2022-09-18T11:30:44.818Z,4.50
2022-09-18T11:33:28.402Z,5.10
2022-09-18T11:36:10.758Z,6.40
2022-09-18T11:38:46.567Z,4.50
2022-09-18T11:41:28.414Z,4.50
2022-09-18T11:44:07.364Z,5.70
2022-09-18T11:46:55.948Z,7.80
2022-09-18T11:49:34.173Z,7.10
2022-09-18T11:52:14.262Z,7.00
2022-09-18T11:54:56.256Z,4.50
2022-09-18T11:57:37.354Z,6.30
2022-09-18T12:00:19.113Z,6.40
2022-09-18T12:03:08.699Z,4.90
2022-09-18T12:05:54.625Z,4.50
2022-09-18T12:08:43.539Z,5.70
2022-09-18T12:11:27.323Z,6.40
2022-09-18T12:14:10.353Z,7.60
2022-09-18T12:16:52.389Z,6.30
2022-09-18T12:19:36.510Z,6.10
2022-09-18T12:22:15.589Z,8.10
2022-09-18T12:24:50.521Z,8.20
2022-09-18T12:27:38.439Z,4.90
2022-09-18T12:30:17.082Z,6.10
2022-09-18T12:33:24.471Z,4.70
2022-09-18T12:36:21.860Z,6.60
2022-09-18T12:39:25.296Z,6.60
2022-09-18T12:42:12.674Z,7.20
2022-09-18T12:45:07.845Z,9.50
2022-09-18T12:47:55.331Z,4.60
2022-09-18T12:50:47.413Z,5.70
2022-09-18T12:53:37.010Z,5.50
2022-09-18T12:56:26.233Z,6.40
2022-09-18T12:59:34.472Z,6.10
2022-09-18T13:02:24.596Z,5.60
2022-09-18T13:05:07.137Z,4.40
2022-09-18T13:10:20.948Z,5.70
2022-09-18T13:13:01.713Z,7.10
2022-09-18T13:15:41.399Z,5.80
2022-09-18T13:18:29.276Z,6.70
2022-09-18T13:21:06.470Z,5.70
2022-09-18T13:23:47.174Z,5.70
2022-09-18T13:26:34.909Z,6.50
2022-09-18T13:29:22.922Z,6.10
2022-09-18T13:31:57.874Z,6.50
2022-09-18T13:34:58.821Z,7.00
2022-09-18T13:37:33.061Z,6.40
2022-09-18T13:40:27.571Z,6.30
2022-09-18T13:43:19.911Z,5.10
2022-09-18T13:45:53.522Z,6.30
2022-09-18T13:48:32.487Z,5.70
2022-09-18T13:51:09.998Z,6.20
2022-09-18T13:53:45.680Z,5.90
2022-09-18T13:56:54.967Z,7.30
2022-09-18T13:59:48.469Z,7.10
2022-09-18T14:02:38.494Z,8.50
2022-09-18T14:05:33.341Z,5.90
2022-09-18T14:08:37.524Z,7.90
2022-09-18T14:11:16.226Z,7.10
2022-09-18T14:13:56.197Z,7.30
2022-09-18T14:16:41.741Z,7.50
2022-09-18T14:19:37.603Z,7.00
2022-09-18T14:22:27.383Z,8.90
2022-09-18T14:25:06.854Z,7.80
2022-09-18T14:27:50.283Z,7.50
2022-09-18T14:30:29.482Z,9.60
2022-09-18T14:33:23.589Z,8.20
2022-09-18T14:36:12.865Z,7.00
2022-09-18T14:38:53.354Z,7.90
2022-09-18T14:41:38.810Z,9.70
2022-09-18T14:44:19.100Z,10.00
2022-09-18T14:47:00.307Z,10.40
2022-09-18T14:49:37.504Z,10.80
2022-09-18T14:52:24.057Z,8.60
2022-09-18T14:54:59.964Z,9.20
2022-09-18T14:57:41.125Z,9.30
2022-09-18T15:00:22.526Z,10.20
2022-09-18T15:03:00.667Z,9.90
2022-09-18T15:05:35.168Z,8.80
2022-09-18T15:08:21.682Z,10.20
2022-09-18T15:11:01.065Z,12.50
2022-09-18T15:13:39.348Z,11.70
2022-09-18T15:16:22.045Z,9.90
2022-09-18T15:18:56.071Z,11.30
2022-09-18T15:21:33.473Z,11.20
2022-09-18T15:24:16.391Z,11.00
2022-09-18T15:26:56.386Z,9.10
2022-09-18T15:29:33.519Z,9.20
2022-09-18T15:32:08.687Z,10.40
2022-09-18T15:34:48.221Z,10.40
2022-09-18T15:37:25.744Z,8.90
2022-09-18T15:40:09.634Z,8.90
2022-09-18T15:42:53.534Z,10.70
2022-09-18T15:45:29.013Z,13.20
2022-09-18T15:48:04.180Z,10.30
2022-09-18T15:50:43.476Z,10.20
2022-09-18T15:53:33.275Z,11.70
2022-09-18T15:56:21.259Z,10.10
2022-09-18T15:58:59.760Z,10.50
2022-09-18T16:01:37.490Z,11.10
2022-09-18T16:04:25.350Z,10.10
2022-09-18T16:07:02.056Z,10.60
2022-09-18T16:09:42.401Z,11.40
2022-09-18T16:12:38.936Z,10.70
2022-09-18T16:15:31.790Z,8.50
2022-09-18T16:18:27.615Z,9.10
2022-09-18T16:21:05.996Z,10.80
2022-09-18T16:23:51.090Z,10.60
2022-09-18T16:26:31.462Z,11.20
2022-09-18T16:29:07.896Z,10.60
2022-09-18T16:31:41.413Z,9.70
2022-09-18T16:34:24.262Z,10.60
2022-09-18T16:36:58.159Z,10.10
2022-09-18T16:39:31.919Z,11.70
2022-09-18T16:42:15.464Z,10.60
2022-09-18T16:44:48.884Z,9.70
2022-09-18T16:47:22.480Z,8.00
2022-09-18T16:49:55.851Z,10.00
2022-09-18T16:52:29.965Z,8.40
2022-09-18T16:55:04.897Z,9.20
2022-09-18T16:57:39.083Z,8.80
2022-09-18T17:00:16.512Z,10.20
2022-09-18T17:02:50.856Z,11.00
2022-09-18T17:05:26.416Z,9.30
2022-09-18T17:08:02.098Z,10.10
2022-09-18T17:10:37.062Z,10.40
2022-09-18T17:13:10.663Z,12.20
2022-09-18T17:15:52.281Z,8.50
2022-09-18T17:18:28.430Z,9.60
2022-09-18T17:21:06.117Z,9.80
2022-09-18T17:23:40.505Z,10.70
2022-09-18T17:26:16.780Z,9.50
2022-09-18T17:28:50.773Z,6.90
2022-09-18T17:31:27.454Z,7.70
2022-09-18T17:34:02.507Z,9.20
2022-09-18T17:36:37.583Z,9.50
2022-09-18T17:39:14.393Z,7.00
2022-09-18T17:41:48.047Z,8.30
2022-09-18T17:44:22.533Z,6.50
2022-09-18T17:46:59.549Z,7.10
2022-09-18T17:49:35.605Z,7.00
2022-09-18T17:52:13.664Z,7.30
2022-09-18T17:54:51.029Z,8.20
2022-09-18T17:57:26.029Z,7.40
2022-09-18T18:00:05.795Z,7.90
2022-09-18T18:02:48.497Z,9.30
2022-09-18T18:05:34.695Z,8.20
2022-09-18T18:10:45.373Z,7.10
2022-09-18T18:13:21.556Z,6.30
2022-09-18T18:16:05.934Z,7.00
2022-09-18T18:18:41.898Z,6.60
2022-09-18T18:21:19.108Z,6.20
2022-09-18T18:24:02.309Z,5.60
2022-09-18T18:26:36.843Z,7.70
2022-09-18T18:29:21.950Z,8.30
2022-09-18T18:32:00.991Z,7.10
2022-09-18T18:34:35.577Z,6.00
2022-09-18T18:37:14.106Z,6.90
2022-09-18T18:39:51.566Z,6.40
2022-09-18T18:42:29.305Z,7.40
2022-09-18T18:45:19.794Z,8.00
2022-09-18T18:47:54.554Z,7.90
2022-09-18T18:50:33.691Z,6.60
2022-09-18T18:53:08.993Z,7.10
2022-09-18T18:55:45.576Z,6.40
2022-09-18T18:58:25.927Z,6.80
2022-09-18T19:01:06.740Z,5.10
2022-09-18T19:03:43.696Z,6.60
2022-09-18T19:06:18.209Z,7.00
2022-09-18T19:09:01.132Z,7.20
2022-09-18T19:11:49.344Z,7.00
2022-09-18T19:14:29.840Z,6.40
2022-09-18T19:17:03.995Z,8.70
2022-09-18T19:19:40.351Z,8.40
2022-09-18T19:22:19.910Z,8.60
2022-09-18T19:24:56.295Z,5.90
2022-09-18T19:27:30.899Z,5.80
2022-09-18T19:30:05.211Z,8.40
2022-09-18T19:32:38.923Z,7.80
2022-09-18T19:35:13.565Z,8.60
2022-09-18T19:37:48.467Z,9.10
2022-09-18T19:40:32.301Z,6.70
2022-09-18T19:43:12.766Z,7.90
2022-09-18T19:45:48.705Z,7.10
2022-09-18T19:48:26.691Z,10.10
2022-09-18T19:51:05.622Z,7.30
2022-09-18T19:53:43.682Z,10.70
2022-09-18T19:56:41.621Z,6.70
2022-09-18T19:59:18.551Z,8.80
2022-09-18T20:01:52.200Z,8.70
2022-09-18T20:04:26.714Z,9.70
2022-09-18T20:07:00.565Z,6.80
2022-09-18T20:09:40.492Z,7.30
2022-09-18T20:12:14.473Z,11.00
2022-09-18T20:14:48.679Z,6.10
2022-09-18T20:17:22.674Z,7.10
2022-09-18T20:20:18.058Z,5.30
2022-09-18T20:22:53.757Z,4.80
2022-09-18T20:25:28.295Z,4.90
2022-09-18T20:28:02.483Z,4.70
2022-09-18T20:30:36.302Z,4.10
2022-09-18T20:33:10.413Z,4.00
2022-09-18T20:35:45.781Z,6.50
2022-09-18T20:38:19.481Z,6.90
2022-09-18T20:41:06.831Z,5.70
2022-09-18T20:43:41.272Z,6.10
2022-09-18T20:46:17.604Z,5.70
2022-09-18T20:48:55.607Z,6.40
2022-09-18T20:51:35.022Z,5.50
2022-09-18T20:54:09.379Z,6.70
2022-09-18T20:56:45.020Z,8.40
2022-09-18T20:59:19.843Z,7.30
2022-09-18T21:01:56.724Z,8.50
2022-09-18T21:04:34.697Z,8.80
2022-09-18T21:07:08.080Z,8.10
2022-09-18T21:09:41.546Z,10.30
2022-09-18T21:12:15.117Z,7.90
2022-09-18T21:14:49.257Z,9.50
2022-09-18T21:17:22.937Z,10.10
2022-09-18T21:19:57.933Z,9.20
2022-09-18T21:23:09.876Z,9.00
2022-09-18T21:25:43.826Z,10.00
2022-09-18T21:28:17.406Z,9.70
2022-09-18T21:30:50.867Z,8.10
2022-09-18T21:33:24.312Z,11.90
2022-09-18T21:35:57.671Z,12.20
2022-09-18T21:38:32.096Z,12.40
2022-09-18T21:41:16.546Z,11.60
2022-09-18T21:43:50.992Z,11.30
2022-09-18T21:46:25.689Z,11.50
2022-09-18T21:48:59.157Z,12.50
2022-09-18T21:51:35.695Z,12.90
2022-09-18T21:54:11.660Z,12.00
2022-09-18T21:56:49.300Z,13.30
2022-09-18T21:59:27.511Z,12.20
2022-09-18T22:02:05.064Z,12.40
2022-09-18T22:04:42.209Z,12.80
2022-09-18T22:07:18.390Z,11.00
2022-09-18T22:09:55.418Z,11.40
2022-09-18T22:12:33.141Z,10.30
2022-09-18T22:15:11.362Z,12.00
2022-09-18T22:17:44.781Z,14.00
2022-09-18T22:20:38.527Z,9.60
2022-09-18T22:23:12.450Z,11.70
2022-09-18T22:25:46.174Z,12.90
2022-09-18T22:28:20.339Z,11.20
2022-09-18T22:30:54.259Z,13.50
2022-09-18T22:33:27.818Z,14.00
2022-09-18T22:36:06.275Z,11.00
2022-09-18T22:38:39.338Z,11.40
2022-09-18T22:41:13.632Z,11.00
2022-09-18T22:43:47.629Z,9.80
2022-09-18T22:46:21.465Z,11.00
2022-09-18T22:48:55.153Z,9.60
2022-09-18T22:51:29.479Z,9.60
2022-09-18T22:54:05.046Z,11.90
2022-09-18T22:56:41.438Z,8.60
2022-09-18T22:59:16.126Z,7.30
2022-09-18T23:01:52.875Z,11.00
2022-09-18T23:04:29.459Z,9.70
2022-09-18T23:07:03.679Z,9.10
2022-09-18T23:09:37.128Z,9.70
2022-09-18T23:12:11.357Z,9.60
2022-09-18T23:14:44.922Z,8.10
2022-09-18T23:17:18.880Z,8.60
2022-09-18T23:19:55.918Z,9.00
2022-09-18T23:22:29.548Z,9.50
2022-09-18T23:25:03.022Z,8.10
2022-09-18T23:27:36.613Z,9.40
2022-09-18T23:30:12.298Z,10.00
2022-09-18T23:32:48.883Z,6.80
2022-09-18T23:35:22.849Z,9.10
2022-09-18T23:37:56.781Z,9.50
2022-09-18T23:40:30.940Z,8.60
2022-09-18T23:43:04.356Z,8.60
2022-09-18T23:45:38.082Z,11.80
2022-09-18T23:48:11.512Z,8.20
2022-09-18T23:50:44.726Z,7.70
2022-09-18T23:53:18.741Z,9.00
2022-09-18T23:55:53.109Z,10.00
2022-09-18T23:58:26.629Z,7.60
